To NAV CANADA Home Page Login to a new session Search on AWWS site Feedback and Comments Disclaimer Vers la page française équivalente Tips FAQ What's new on the site To the Forecasts and Observations / NOTAM section To "File a Flight Plan" website Publications and other links Update of the User's profile FIC Telephone Numbers My Weather Data Folder Route Weather Data Regional Weather Data Local Weather Data To the Forecasts and Observations / NOTAM section
Request Generated 01/21/2017 at 02:04:49 UTC . Weather information available at that time is displayed.

METAR/TAF

SCHEFFERVILLE/QC    (show WxCam)

METAR CYKL 210200Z AUTO 15006KT 3SM -SN OVC042 M08/M08 A2964 RMK
SLP081=
SPECI CYKL 210138Z AUTO 14004KT 5SM -SN SCT011 BKN048 OVC060 M08/M08
A2964 RMK SLP084=
SPECI CYKL 210133Z AUTO 14004KT 8SM -SN SCT011 OVC055 M08/M08 A2964
RMK SLP084=
SPECI CYKL 210121Z AUTO 15005KT 9SM -SN OVC011 M08/M08 A2965 RMK
SLP085=
SPECI CYKL 210114Z AUTO 14004KT 9SM OVC011 M08/M08 A2965 RMK SLP086=
METAR CYKL 210100Z AUTO 15004KT 9SM OVC009 M08/M08 A2965 RMK SLP087=
METAR CYKL 210000Z AUTO 15006KT 9SM OVC009 M08/M08 A2966 RMK SLP089=

TAF CYKL 210138Z 2102/2114 14005KT P6SM -SN SCT008 OVC050 TEMPO
2102/2104 3SM -SN BKN008 OVC050
FM210400 15004KT 6SM -SN OVC010 TEMPO 2104/2106 5SM -SN OVC007
PROB30 2104/2106 11/2SM -SN OVC006
FM210600 18007KT 11/2SM -SN OVC005 TEMPO 2106/2114 4SM -SN OVC012
PROB30 2106/2114 3/4SM -SN VV003
RMK FCST BASED ON AUTO OBS. NXT FCST BY 210800Z=
Your time UTC time
Weather data provided by Environment Canada and NAV CANADA